Terminal Aerodrome Forecast
Issued by NWS

Home | Current Version | Previous Version | Graphics & Text | Print | Product List | Glossary On
Versions: 1 2 3 4 5 6 7 8 9 10 11 12 13
000
FTUS43 KMPX 281100
TAFRNH
TAF
KRNH 281130Z 2812/2912 33004KT P6SM SCT045 BKN060
     FM281500 33007KT P6SM SCT045
     FM290100 34004KT P6SM SCT250
     FM291000 31002KT P6SM SKC=

USA.gov is the U.S. government's official web portal to all federal, state and local government web resources and services.